Hermana — ICOF — position and weather

sailwx.info

Track history (hours):
 
Tides and Currents Weather Stations Pressure Air Temp Water Temp Dewpoint Dewpoint Depression Visibility Wind Speed Wind Dir Waves Ship Positions

Hermana

Last reported at 2018-Jun-23 06:24 UTC. Time now 2018-Jun-23 15:31 UTC.
Position N 38°45' E 004°01'.

Length 140 m; draft 5.8 m.

Type: Cargo ship. MMSI: 247293700.

Date/timePositionNaut miles runAvg speedWind from/ knotsBaromVisibWave heightAir tempDewpointWater temp
2018-Jun-23 06:24N 38°45' E 004°01'712.7
2018-Jun-23 05:52N 38°47' E 003°53'512.8
2018-Jun-23 05:30N 38°48' E 003°47'612.8
2018-Jun-23 05:00N 38°50' E 003°39'612.8
2018-Jun-23 04:30N 38°53' E 003°31'712.8
2018-Jun-23 03:59N 38°55' E 003°23'612.7
2018-Jun-23 03:30N 38°56' E 003°16'612.5
2018-Jun-23 03:01N 38°58' E 003°08'612.5
2018-Jun-23 02:30N 38°60' E 003°00'712.2
2018-Jun-23 01:56N 39°02' E 002°52'512.0
2018-Jun-23 01:30N 39°03' E 002°45'612.1
2018-Jun-23 01:00N 39°05' E 002°38'612.2
2018-Jun-23 00:29N 39°06' E 002°30'10812.4
2018-Jun-22 15:44N 39°33' E 000°14'411.6
2018-Jun-22 15:23N 39°34' E 000°09'411.6
2018-Jun-22 15:01N 39°35' E 000°03'611.7
2018-Jun-22 14:30N 39°36' W 000°04'4 8.3
2018-Jun-22 14:00N 39°37' W 000°09'0 0.1
2018-Jun-22 13:30N 39°37' W 000°09'0 0.0
2018-Jun-22 12:57N 39°37' W 000°09'0 0.0
2018-Jun-22 12:30N 39°37' W 000°09'0 0.0
2018-Jun-22 12:00N 39°37' W 000°09'0 0.0
2018-Jun-22 11:30N 39°37' W 000°09'0 0.0
2018-Jun-22 11:00N 39°37' W 000°09'0 0.0
2018-Jun-22 10:15N 39°37' W 000°09'0 0.1
2018-Jun-22 09:54N 39°37' W 000°09'0 0.0
2018-Jun-22 09:30N 39°37' W 000°09'0 0.0
2018-Jun-22 05:48N 39°37' W 000°09'0 0.1
2018-Jun-22 05:30N 39°37' W 000°09'0 0.0
2018-Jun-22 04:54N 39°37' W 000°09'0 0.0
2018-Jun-22 04:30N 39°37' W 000°09'0 0.0
2018-Jun-22 03:54N 39°37' W 000°09'0 0.0
2018-Jun-21 16:27N 39°37' W 000°09'0 0.0
2018-Jun-21 16:00N 39°37' W 000°09'0 0.0
2018-Jun-21 15:30N 39°37' W 000°09'0 0.0
2018-Jun-21 15:00N 39°37' W 000°09'0 0.0
2018-Jun-21 14:27N 39°37' W 000°09'0 0.0
2018-Jun-21 14:00N 39°37' W 000°09'0 0.1
2018-Jun-21 13:30N 39°37' W 000°09'3 6.2
2018-Jun-21 12:59N 39°39' W 000°13'3 0.1
2018-Jun-20 14:54N 39°38' W 000°09'0 0.0
2018-Jun-20 14:30N 39°38' W 000°09'0 0.0
2018-Jun-20 14:00N 39°38' W 000°09'116 6.1
2018-Jun-19 18:51N 40°53' E 001°46'411.7
2018-Jun-19 18:30N 40°57' E 001°49'711.5
2018-Jun-19 17:56N 41°02' E 001°54'511.3
2018-Jun-19 17:31N 41°05' E 001°58'611.2
2018-Jun-19 17:00N 41°10' E 002°03'611.4
2018-Jun-19 16:30N 41°14' E 002°08'510.4
2018-Jun-19 16:00N 41°19' E 002°10'2 3.4
2018-Jun-19 15:25N 41°21' E 002°09'0 0.0
2018-Jun-19 14:58N 41°21' E 002°09'0 0.0
2018-Jun-19 14:29N 41°21' E 002°09'0 0.0
2018-Jun-19 14:00N 41°21' E 002°09'0 0.0
2018-Jun-19 13:28N 41°21' E 002°09'0 0.0
2018-Jun-19 13:00N 41°21' E 002°09'0 0.0
2018-Jun-19 12:30N 41°21' E 002°09'0 0.0
2018-Jun-19 12:00N 41°21' E 002°09'0 0.0
2018-Jun-19 11:29N 41°21' E 002°09'0 0.0
2018-Jun-19 10:59N 41°21' E 002°09'0 0.0
2018-Jun-19 10:30N 41°21' E 002°09'0 0.0
2018-Jun-19 10:00N 41°21' E 002°09'0 0.0
2018-Jun-19 09:30N 41°21' E 002°09'0 0.0
2018-Jun-19 09:00N 41°21' E 002°09'0 0.0
2018-Jun-19 08:30N 41°21' E 002°09'0 0.0
2018-Jun-19 08:00N 41°21' E 002°09'0 0.0
2018-Jun-19 07:26N 41°21' E 002°09'0 0.0
2018-Jun-19 07:00N 41°21' E 002°09'0 0.0
2018-Jun-19 06:30N 41°21' E 002°09'0 0.0
2018-Jun-19 06:00N 41°21' E 002°09'0 0.0
2018-Jun-19 05:30N 41°21' E 002°09'0 0.0
2018-Jun-19 05:00N 41°21' E 002°09'0 0.0
2018-Jun-19 04:30N 41°21' E 002°09'0 0.4
2018-Jun-19 04:01N 41°21' E 002°09'2 4.6
2018-Jun-19 03:30N 41°18' E 002°10'3 5.8
2018-Jun-19 03:00N 41°18' E 002°14'511.0
2018-Jun-19 02:30N 41°21' E 002°20'812.2
2018-Jun-19 01:53N 41°25' E 002°29'1112.3
2018-Jun-19 01:00N 41°31' E 002°41'1412.1
2018-Jun-18 23:52N 41°38' E 002°57'156 9.8
2018-Jun-18 07:56N 42°56' E 005°59'511.1
2018-Jun-18 07:28N 42°56' E 006°06'2710.5
2018-Jun-18 04:53N 43°04' E 006°41'511.9
2018-Jun-18 04:25N 43°08' E 006°47'511.9
2018-Jun-18 04:00N 43°11' E 006°52'611.9
2018-Jun-18 03:30N 43°15' E 006°58'611.7
2018-Jun-18 03:00N 43°19' E 007°04'611.5
2018-Jun-18 02:30N 43°23' E 007°09'611.4
2018-Jun-18 02:00N 43°27' E 007°15'611.4
2018-Jun-18 01:29N 43°29' E 007°22'611.7
2018-Jun-18 01:00N 43°32' E 007°29'611.6
2018-Jun-18 00:28N 43°35' E 007°37'711.7
2018-Jun-17 23:52N 43°38' E 007°45'511.7
2018-Jun-17 23:25N 43°41' E 007°52'611.7
2018-Jun-17 22:55N 43°44' E 007°59'511.5
2018-Jun-17 22:30N 43°46' E 008°05'611.6
2018-Jun-17 22:00N 43°49' E 008°11'611.4
2018-Jun-17 21:30N 43°53' E 008°17'611.2
2018-Jun-17 21:00N 43°57' E 008°22'510.9
2018-Jun-17 20:30N 44°01' E 008°27'510.7
2018-Jun-17 20:00N 44°05' E 008°32'510.8
2018-Jun-17 19:30N 44°09' E 008°37'510.4
2018-Jun-17 19:00N 44°13' E 008°42'4 8.4
2018-Jun-17 18:30N 44°17' E 008°46'1 1.3
2018-Jun-17 18:00N 44°17' E 008°46'3 6.4
2018-Jun-17 17:30N 44°20' E 008°49'510.7
2018-Jun-17 17:01N 44°24' E 008°53'1 1.6
2018-Jun-17 16:30N 44°24' E 008°52'0 0.0
2018-Jun-17 16:00N 44°24' E 008°52'0 0.0
2018-Jun-17 15:30N 44°24' E 008°52'0 0.0
2018-Jun-17 15:00N 44°24' E 008°52'0 0.0
2018-Jun-17 14:30N 44°24' E 008°52'0 0.0
2018-Jun-17 14:00N 44°24' E 008°52'0 0.0
2018-Jun-17 13:30N 44°24' E 008°52'0 0.0
2018-Jun-17 13:00N 44°24' E 008°52'0 0.0
2018-Jun-17 12:30N 44°24' E 008°52'0 0.0
2018-Jun-17 12:00N 44°24' E 008°52'0 0.0
2018-Jun-17 11:30N 44°24' E 008°52'0 0.0
2018-Jun-17 11:00N 44°24' E 008°52'0 0.0
2018-Jun-17 10:30N 44°24' E 008°52'0 0.0
2018-Jun-17 10:00N 44°24' E 008°52'0 0.0
2018-Jun-17 09:30N 44°24' E 008°52'0 0.0
2018-Jun-17 09:00N 44°24' E 008°52'0 0.0
2018-Jun-17 08:30N 44°24' E 008°52'0 0.0
2018-Jun-17 08:00N 44°24' E 008°52'0 0.0
2018-Jun-17 07:30N 44°24' E 008°52'0 0.0
2018-Jun-17 07:00N 44°24' E 008°52'0 0.0
2018-Jun-17 06:30N 44°24' E 008°52'0 0.0
2018-Jun-17 06:00N 44°24' E 008°52'0 0.0
2018-Jun-17 05:30N 44°24' E 008°52'0 0.0
2018-Jun-17 05:00N 44°24' E 008°52'0 0.0
2018-Jun-17 04:30N 44°24' E 008°52'0 0.0
2018-Jun-17 04:00N 44°24' E 008°52'0 0.0
2018-Jun-17 03:30N 44°24' E 008°52'0 0.0
2018-Jun-17 03:00N 44°24' E 008°52'0 0.0
2018-Jun-17 02:30N 44°24' E 008°52'0 0.0
2018-Jun-17 02:00N 44°24' E 008°52'0 0.0
2018-Jun-17 01:30N 44°24' E 008°52'0 0.0
2018-Jun-17 01:00N 44°24' E 008°52'0 0.0
2018-Jun-17 00:30N 44°24' E 008°52'0 0.0
2018-Jun-17 00:00N 44°24' E 008°52'0 0.0
2018-Jun-16 23:30N 44°24' E 008°52'0 0.0
2018-Jun-16 23:00N 44°24' E 008°52'0 0.0
2018-Jun-16 22:30N 44°24' E 008°52'0 0.0
2018-Jun-16 22:00N 44°24' E 008°52'0 0.0
2018-Jun-16 21:30N 44°24' E 008°52'0 0.0
2018-Jun-16 21:00N 44°24' E 008°52'0 0.0
2018-Jun-16 20:30N 44°24' E 008°52'0 0.0
2018-Jun-16 20:00N 44°24' E 008°52'0 0.0
2018-Jun-16 19:30N 44°24' E 008°52'0 0.0
2018-Jun-16 18:59N 44°24' E 008°52'0 0.0
2018-Jun-16 18:30N 44°24' E 008°52'0 0.0
2018-Jun-16 18:00N 44°24' E 008°52'0 0.0
2018-Jun-16 17:30N 44°24' E 008°52'0 0.0
2018-Jun-16 17:00N 44°24' E 008°52'0 0.0
2018-Jun-16 16:30N 44°24' E 008°52'0 0.0
2018-Jun-16 16:00N 44°24' E 008°52'0 0.0
2018-Jun-16 15:30N 44°24' E 008°52'0 0.0
2018-Jun-16 15:00N 44°24' E 008°52'0 0.0
2018-Jun-16 14:30N 44°24' E 008°52'0 0.0
2018-Jun-16 14:00N 44°24' E 008°52'0 0.0
2018-Jun-16 13:30N 44°24' E 008°52'0 0.0
2018-Jun-16 13:00N 44°24' E 008°52'0 0.0
2018-Jun-16 12:30N 44°24' E 008°52'0 0.0
2018-Jun-16 12:00N 44°24' E 008°52'0 0.0
2018-Jun-16 11:30N 44°24' E 008°52'0 0.0
2018-Jun-16 11:00N 44°24' E 008°52'0 0.0
2018-Jun-16 10:30N 44°24' E 008°52'0 0.0
2018-Jun-16 10:00N 44°24' E 008°52'0 0.0
2018-Jun-16 09:30N 44°24' E 008°52'0 0.0
2018-Jun-16 09:00N 44°24' E 008°52'0 0.0
2018-Jun-16 08:30N 44°24' E 008°52'0 0.0
2018-Jun-16 08:00N 44°24' E 008°52'0 0.0
2018-Jun-16 07:30N 44°24' E 008°52'0 0.0
2018-Jun-16 07:00N 44°24' E 008°52'0 0.0
2018-Jun-16 06:30N 44°24' E 008°52'0 0.0
2018-Jun-16 06:00N 44°24' E 008°52'0 0.0
2018-Jun-16 05:30N 44°24' E 008°52'0 0.0
2018-Jun-16 05:00N 44°24' E 008°52'0 0.0
2018-Jun-16 04:30N 44°24' E 008°52'0 0.0
2018-Jun-16 04:00N 44°24' E 008°52'0 0.0
2018-Jun-16 03:30N 44°24' E 008°52'0 0.0
2018-Jun-16 03:00N 44°24' E 008°52'0 0.0
2018-Jun-16 02:30N 44°24' E 008°52'0 0.0
2018-Jun-16 02:00N 44°24' E 008°52'0 0.0
2018-Jun-16 01:30N 44°24' E 008°52'0 0.0
2018-Jun-16 01:00N 44°24' E 008°52'0 0.0
2018-Jun-16 00:30N 44°24' E 008°52'0 0.0
2018-Jun-16 00:00N 44°24' E 008°52'0 0.0
2018-Jun-15 23:30N 44°24' E 008°52'0 0.0
2018-Jun-15 23:00N 44°24' E 008°52'0 0.0
2018-Jun-15 22:30N 44°24' E 008°52'0 0.0
2018-Jun-15 22:00N 44°24' E 008°52'0 0.0
2018-Jun-15 21:30N 44°24' E 008°52'0 0.0
2018-Jun-15 21:00N 44°24' E 008°52'0 0.0
2018-Jun-15 20:30N 44°24' E 008°52'0 0.0
2018-Jun-15 20:00N 44°24' E 008°52'0 0.0
2018-Jun-15 19:30N 44°24' E 008°52'0 0.0
2018-Jun-15 19:00N 44°24' E 008°52'0 0.0
2018-Jun-15 18:30N 44°24' E 008°52'0 0.0
2018-Jun-15 18:00N 44°24' E 008°52'0 0.0
2018-Jun-15 17:30N 44°24' E 008°52'0 0.0
2018-Jun-15 17:00N 44°24' E 008°52'0 0.0
2018-Jun-15 16:30N 44°24' E 008°52'0 0.0
2018-Jun-15 16:00N 44°24' E 008°52'0 0.0
2018-Jun-15 15:30N 44°24' E 008°52'0 0.0
2018-Jun-15 15:00N 44°24' E 008°52'0 0.0
2018-Jun-15 14:30N 44°24' E 008°52'0 0.0
2018-Jun-15 14:00N 44°24' E 008°52'0 0.0
2018-Jun-15 13:30N 44°24' E 008°52'0 0.0
2018-Jun-15 13:00N 44°24' E 008°52'0 0.0
2018-Jun-15 12:30N 44°24' E 008°52'0 0.0
2018-Jun-15 12:00N 44°24' E 008°52'0 0.0
2018-Jun-15 11:30N 44°24' E 008°52'0 0.0
2018-Jun-15 11:00N 44°24' E 008°52'0 0.0
2018-Jun-15 10:30N 44°24' E 008°52'0 0.0
2018-Jun-15 10:00N 44°24' E 008°52'0 0.0
2018-Jun-15 09:30N 44°24' E 008°52'0 0.0
2018-Jun-15 09:00N 44°24' E 008°52'0 0.0
2018-Jun-15 08:30N 44°24' E 008°52'0 0.0
2018-Jun-15 08:00N 44°24' E 008°52'0 0.0
2018-Jun-15 07:30N 44°24' E 008°52'0 0.0
2018-Jun-15 07:00N 44°24' E 008°52'0 0.0
2018-Jun-15 06:30N 44°24' E 008°52'0 0.0
2018-Jun-15 06:00N 44°24' E 008°52'0 0.0
2018-Jun-15 05:30N 44°24' E 008°52'0 0.0
2018-Jun-15 05:00N 44°24' E 008°52'0 0.0
2018-Jun-15 04:30N 44°24' E 008°52'0 0.0
2018-Jun-15 04:00N 44°24' E 008°52'0 0.0
2018-Jun-15 03:30N 44°24' E 008°52'0 0.0
2018-Jun-15 03:00N 44°24' E 008°52'0 0.0
2018-Jun-15 02:30N 44°24' E 008°52'0 0.0
2018-Jun-15 02:00N 44°24' E 008°52'0 0.0
2018-Jun-15 01:30N 44°24' E 008°52'0 0.0
2018-Jun-15 01:00N 44°24' E 008°52'0 0.0
2018-Jun-15 00:30N 44°24' E 008°52'0 0.0
2018-Jun-15 00:00N 44°24' E 008°52'0 0.0
2018-Jun-14 23:30N 44°24' E 008°52'0 0.0
2018-Jun-14 23:00N 44°24' E 008°52'0 0.0
2018-Jun-14 22:30N 44°24' E 008°52'0 0.0
2018-Jun-14 22:00N 44°24' E 008°52'0 0.0
2018-Jun-14 21:30N 44°24' E 008°52'0 0.0
2018-Jun-14 21:00N 44°24' E 008°52'0 0.0
2018-Jun-14 20:30N 44°24' E 008°52'0 0.0
2018-Jun-14 20:00N 44°24' E 008°52'0 0.0
2018-Jun-14 19:30N 44°24' E 008°52'0 0.0
2018-Jun-14 19:00N 44°24' E 008°52'0 0.0
2018-Jun-14 18:30N 44°24' E 008°52'0 0.0
2018-Jun-14 18:00N 44°24' E 008°52'0 0.0
2018-Jun-14 17:30N 44°24' E 008°52'0 0.0
2018-Jun-14 17:00N 44°24' E 008°52'0 0.0
2018-Jun-14 16:30N 44°24' E 008°52'0 0.0
2018-Jun-14 16:00N 44°24' E 008°52'0 0.0
2018-Jun-14 15:30N 44°24' E 008°52'0 0.0
2018-Jun-14 15:00N 44°24' E 008°52'0 0.0
2018-Jun-14 14:30N 44°24' E 008°52'0 0.0
2018-Jun-14 14:00N 44°24' E 008°52'0 0.0
2018-Jun-14 13:30N 44°24' E 008°52'0 0.0
2018-Jun-14 13:00N 44°24' E 008°52'0 0.0
2018-Jun-14 12:30N 44°24' E 008°52'0 0.0
2018-Jun-14 12:00N 44°24' E 008°52'0 0.0
2018-Jun-14 11:30N 44°24' E 008°52'0 0.0
2018-Jun-14 11:00N 44°24' E 008°52'0 0.0
2018-Jun-14 10:30N 44°24' E 008°52'0 0.0
2018-Jun-14 10:00N 44°24' E 008°52'0 0.0
2018-Jun-14 09:30N 44°24' E 008°52'0 0.0
2018-Jun-14 09:00N 44°24' E 008°52'0 0.0
2018-Jun-14 08:30N 44°24' E 008°52'0 0.0
2018-Jun-14 08:00N 44°24' E 008°52'0 0.0
2018-Jun-14 07:30N 44°24' E 008°52'0 0.0
2018-Jun-14 07:00N 44°24' E 008°52'0 0.0
2018-Jun-14 06:30N 44°24' E 008°52'0 0.0
2018-Jun-14 06:00N 44°24' E 008°52'0 0.0
2018-Jun-14 05:30N 44°24' E 008°52'0 0.0
2018-Jun-14 05:00N 44°24' E 008°52'0 0.0
2018-Jun-14 04:30N 44°24' E 008°52'0 0.0
2018-Jun-14 04:00N 44°24' E 008°52'0 0.0
2018-Jun-14 03:30N 44°24' E 008°52'0 0.0
2018-Jun-14 03:00N 44°24' E 008°52'0 0.0
2018-Jun-14 02:30N 44°24' E 008°52'0 0.0
2018-Jun-14 02:00N 44°24' E 008°52'0 0.0
2018-Jun-14 01:30N 44°24' E 008°52'0 0.0
2018-Jun-14 01:00N 44°24' E 008°52'0 0.0
2018-Jun-14 00:30N 44°24' E 008°52'0 0.0
2018-Jun-14 00:00N 44°24' E 008°52'0 0.0
2018-Jun-13 23:30N 44°24' E 008°52'0 0.0
2018-Jun-13 23:00N 44°24' E 008°52'0 0.0
2018-Jun-13 22:30N 44°24' E 008°52'0 0.0
2018-Jun-13 22:00N 44°24' E 008°52'0 0.0
2018-Jun-13 21:30N 44°24' E 008°52'0 0.0
2018-Jun-13 21:00N 44°24' E 008°52'0 0.0
2018-Jun-13 20:30N 44°24' E 008°52'0 0.0
2018-Jun-13 20:00N 44°24' E 008°52'0 0.0
2018-Jun-13 19:30N 44°24' E 008°52'0 0.0
2018-Jun-13 19:00N 44°24' E 008°52'0 0.0
2018-Jun-13 18:30N 44°24' E 008°52'0 0.0
2018-Jun-13 18:00N 44°24' E 008°52'0 0.0
2018-Jun-13 17:30N 44°24' E 008°52'0 0.0
2018-Jun-13 17:00N 44°24' E 008°52'0 0.0
2018-Jun-13 16:30N 44°24' E 008°52'0 0.0
2018-Jun-13 16:00N 44°24' E 008°52'0 0.0
2018-Jun-13 15:30N 44°24' E 008°52'0 0.0
2018-Jun-13 15:00N 44°24' E 008°52'0 0.0
2018-Jun-13 14:30N 44°24' E 008°52'0 0.0
2018-Jun-13 14:00N 44°24' E 008°52'0 0.0
2018-Jun-13 13:30N 44°24' E 008°52'0 0.0
2018-Jun-13 13:00N 44°24' E 008°52'0 0.0
2018-Jun-13 12:30N 44°24' E 008°52'0 0.3
2018-Jun-13 12:00N 44°24' E 008°52'1 2.8
2018-Jun-13 11:30N 44°24' E 008°54'1 1.2
2018-Jun-13 11:00N 44°23' E 008°53'1 1.0
2018-Jun-13 10:30N 44°23' E 008°54'1 1.1
2018-Jun-13 09:55N 44°23' E 008°55'0 0.1
2018-Jun-13 09:28N 44°23' E 008°55'0 0.1
2018-Jun-13 08:55N 44°23' E 008°55'0 0.0
2018-Jun-13 08:28N 44°23' E 008°55'0 0.0
2018-Jun-13 07:58N 44°23' E 008°55'0 0.0
2018-Jun-13 07:28N 44°23' E 008°55'0 0.1
2018-Jun-13 06:58N 44°23' E 008°55'0 0.0
2018-Jun-13 06:28N 44°23' E 008°55'  
Track history (hours):
 
Tides and Currents Weather Stations Pressure Air Temp Water Temp Dewpoint Dewpoint Depression Visibility Wind Speed Wind Dir Waves Ship Positions

Hermana

Last reported at 2018-Jun-23 06:24 UTC. Time now 2018-Jun-23 15:31 UTC.
Position N 38°45' E 004°01'.

Length 140 m; draft 5.8 m.

Type: Cargo ship. MMSI: 247293700.

Date/timePositionNaut miles runAvg speedWind from/ knotsBaromVisibWave heightAir tempDewpointWater temp
2018-Jun-23 06:24N 38°45' E 004°01'712.7
2018-Jun-23 05:52N 38°47' E 003°53'512.8
2018-Jun-23 05:30N 38°48' E 003°47'612.8
2018-Jun-23 05:00N 38°50' E 003°39'612.8
2018-Jun-23 04:30N 38°53' E 003°31'712.8
2018-Jun-23 03:59N 38°55' E 003°23'612.7
2018-Jun-23 03:30N 38°56' E 003°16'612.5
2018-Jun-23 03:01N 38°58' E 003°08'612.5
2018-Jun-23 02:30N 38°60' E 003°00'712.2
2018-Jun-23 01:56N 39°02' E 002°52'512.0
2018-Jun-23 01:30N 39°03' E 002°45'612.1
2018-Jun-23 01:00N 39°05' E 002°38'612.2
2018-Jun-23 00:29N 39°06' E 002°30'10812.4
2018-Jun-22 15:44N 39°33' E 000°14'411.6
2018-Jun-22 15:23N 39°34' E 000°09'411.6
2018-Jun-22 15:01N 39°35' E 000°03'611.7
2018-Jun-22 14:30N 39°36' W 000°04'4 8.3
2018-Jun-22 14:00N 39°37' W 000°09'0 0.1
2018-Jun-22 13:30N 39°37' W 000°09'0 0.0
2018-Jun-22 12:57N 39°37' W 000°09'0 0.0
2018-Jun-22 12:30N 39°37' W 000°09'0 0.0
2018-Jun-22 12:00N 39°37' W 000°09'0 0.0
2018-Jun-22 11:30N 39°37' W 000°09'0 0.0
2018-Jun-22 11:00N 39°37' W 000°09'0 0.0
2018-Jun-22 10:15N 39°37' W 000°09'0 0.1
2018-Jun-22 09:54N 39°37' W 000°09'0 0.0
2018-Jun-22 09:30N 39°37' W 000°09'0 0.0
2018-Jun-22 05:48N 39°37' W 000°09'0 0.1
2018-Jun-22 05:30N 39°37' W 000°09'0 0.0
2018-Jun-22 04:54N 39°37' W 000°09'0 0.0
2018-Jun-22 04:30N 39°37' W 000°09'0 0.0
2018-Jun-22 03:54N 39°37' W 000°09'0 0.0
2018-Jun-21 16:27N 39°37' W 000°09'0 0.0
2018-Jun-21 16:00N 39°37' W 000°09'0 0.0
2018-Jun-21 15:30N 39°37' W 000°09'0 0.0
2018-Jun-21 15:00N 39°37' W 000°09'0 0.0
2018-Jun-21 14:27N 39°37' W 000°09'0 0.0
2018-Jun-21 14:00N 39°37' W 000°09'0 0.1
2018-Jun-21 13:30N 39°37' W 000°09'3 6.2
2018-Jun-21 12:59N 39°39' W 000°13'3 0.1
2018-Jun-20 14:54N 39°38' W 000°09'0 0.0
2018-Jun-20 14:30N 39°38' W 000°09'0 0.0
2018-Jun-20 14:00N 39°38' W 000°09'116 6.1
2018-Jun-19 18:51N 40°53' E 001°46'411.7
2018-Jun-19 18:30N 40°57' E 001°49'711.5
2018-Jun-19 17:56N 41°02' E 001°54'511.3
2018-Jun-19 17:31N 41°05' E 001°58'611.2
2018-Jun-19 17:00N 41°10' E 002°03'611.4
2018-Jun-19 16:30N 41°14' E 002°08'510.4
2018-Jun-19 16:00N 41°19' E 002°10'2 3.4
2018-Jun-19 15:25N 41°21' E 002°09'0 0.0
2018-Jun-19 14:58N 41°21' E 002°09'0 0.0
2018-Jun-19 14:29N 41°21' E 002°09'0 0.0
2018-Jun-19 14:00N 41°21' E 002°09'0 0.0
2018-Jun-19 13:28N 41°21' E 002°09'0 0.0
2018-Jun-19 13:00N 41°21' E 002°09'0 0.0
2018-Jun-19 12:30N 41°21' E 002°09'0 0.0
2018-Jun-19 12:00N 41°21' E 002°09'0 0.0
2018-Jun-19 11:29N 41°21' E 002°09'0 0.0
2018-Jun-19 10:59N 41°21' E 002°09'0 0.0
2018-Jun-19 10:30N 41°21' E 002°09'0 0.0
2018-Jun-19 10:00N 41°21' E 002°09'0 0.0
2018-Jun-19 09:30N 41°21' E 002°09'0 0.0
2018-Jun-19 09:00N 41°21' E 002°09'0 0.0
2018-Jun-19 08:30N 41°21' E 002°09'0 0.0
2018-Jun-19 08:00N 41°21' E 002°09'0 0.0
2018-Jun-19 07:26N 41°21' E 002°09'0 0.0
2018-Jun-19 07:00N 41°21' E 002°09'0 0.0
2018-Jun-19 06:30N 41°21' E 002°09'0 0.0
2018-Jun-19 06:00N 41°21' E 002°09'0 0.0
2018-Jun-19 05:30N 41°21' E 002°09'0 0.0
2018-Jun-19 05:00N 41°21' E 002°09'0 0.0
2018-Jun-19 04:30N 41°21' E 002°09'0 0.4
2018-Jun-19 04:01N 41°21' E 002°09'2 4.6
2018-Jun-19 03:30N 41°18' E 002°10'3 5.8
2018-Jun-19 03:00N 41°18' E 002°14'511.0
2018-Jun-19 02:30N 41°21' E 002°20'812.2
2018-Jun-19 01:53N 41°25' E 002°29'1112.3
2018-Jun-19 01:00N 41°31' E 002°41'1412.1
2018-Jun-18 23:52N 41°38' E 002°57'156 9.8
2018-Jun-18 07:56N 42°56' E 005°59'511.1
2018-Jun-18 07:28N 42°56' E 006°06'2710.5
2018-Jun-18 04:53N 43°04' E 006°41'511.9
2018-Jun-18 04:25N 43°08' E 006°47'511.9
2018-Jun-18 04:00N 43°11' E 006°52'611.9
2018-Jun-18 03:30N 43°15' E 006°58'611.7
2018-Jun-18 03:00N 43°19' E 007°04'611.5
2018-Jun-18 02:30N 43°23' E 007°09'611.4
2018-Jun-18 02:00N 43°27' E 007°15'611.4
2018-Jun-18 01:29N 43°29' E 007°22'611.7
2018-Jun-18 01:00N 43°32' E 007°29'611.6
2018-Jun-18 00:28N 43°35' E 007°37'711.7
2018-Jun-17 23:52N 43°38' E 007°45'511.7
2018-Jun-17 23:25N 43°41' E 007°52'611.7
2018-Jun-17 22:55N 43°44' E 007°59'511.5
2018-Jun-17 22:30N 43°46' E 008°05'611.6
2018-Jun-17 22:00N 43°49' E 008°11'611.4
2018-Jun-17 21:30N 43°53' E 008°17'611.2
2018-Jun-17 21:00N 43°57' E 008°22'510.9
2018-Jun-17 20:30N 44°01' E 008°27'510.7
2018-Jun-17 20:00N 44°05' E 008°32'510.8
2018-Jun-17 19:30N 44°09' E 008°37'510.4
2018-Jun-17 19:00N 44°13' E 008°42'4 8.4
2018-Jun-17 18:30N 44°17' E 008°46'1 1.3
2018-Jun-17 18:00N 44°17' E 008°46'3 6.4
2018-Jun-17 17:30N 44°20' E 008°49'510.7
2018-Jun-17 17:01N 44°24' E 008°53'1 1.6
2018-Jun-17 16:30N 44°24' E 008°52'0 0.0
2018-Jun-17 16:00N 44°24' E 008°52'0 0.0
2018-Jun-17 15:30N 44°24' E 008°52'0 0.0
2018-Jun-17 15:00N 44°24' E 008°52'0 0.0
2018-Jun-17 14:30N 44°24' E 008°52'0 0.0
2018-Jun-17 14:00N 44°24' E 008°52'0 0.0
2018-Jun-17 13:30N 44°24' E 008°52'0 0.0
2018-Jun-17 13:00N 44°24' E 008°52'0 0.0
2018-Jun-17 12:30N 44°24' E 008°52'0 0.0
2018-Jun-17 12:00N 44°24' E 008°52'0 0.0
2018-Jun-17 11:30N 44°24' E 008°52'0 0.0
2018-Jun-17 11:00N 44°24' E 008°52'0 0.0
2018-Jun-17 10:30N 44°24' E 008°52'0 0.0
2018-Jun-17 10:00N 44°24' E 008°52'0 0.0
2018-Jun-17 09:30N 44°24' E 008°52'0 0.0
2018-Jun-17 09:00N 44°24' E 008°52'0 0.0
2018-Jun-17 08:30N 44°24' E 008°52'0 0.0
2018-Jun-17 08:00N 44°24' E 008°52'0 0.0
2018-Jun-17 07:30N 44°24' E 008°52'0 0.0
2018-Jun-17 07:00N 44°24' E 008°52'0 0.0
2018-Jun-17 06:30N 44°24' E 008°52'0 0.0
2018-Jun-17 06:00N 44°24' E 008°52'0 0.0
2018-Jun-17 05:30N 44°24' E 008°52'0 0.0
2018-Jun-17 05:00N 44°24' E 008°52'0 0.0
2018-Jun-17 04:30N 44°24' E 008°52'0 0.0
2018-Jun-17 04:00N 44°24' E 008°52'0 0.0
2018-Jun-17 03:30N 44°24' E 008°52'0 0.0
2018-Jun-17 03:00N 44°24' E 008°52'0 0.0
2018-Jun-17 02:30N 44°24' E 008°52'0 0.0
2018-Jun-17 02:00N 44°24' E 008°52'0 0.0
2018-Jun-17 01:30N 44°24' E 008°52'0 0.0
2018-Jun-17 01:00N 44°24' E 008°52'0 0.0
2018-Jun-17 00:30N 44°24' E 008°52'0 0.0
2018-Jun-17 00:00N 44°24' E 008°52'0 0.0
2018-Jun-16 23:30N 44°24' E 008°52'0 0.0
2018-Jun-16 23:00N 44°24' E 008°52'0 0.0
2018-Jun-16 22:30N 44°24' E 008°52'0 0.0
2018-Jun-16 22:00N 44°24' E 008°52'0 0.0
2018-Jun-16 21:30N 44°24' E 008°52'0 0.0
2018-Jun-16 21:00N 44°24' E 008°52'0 0.0
2018-Jun-16 20:30N 44°24' E 008°52'0 0.0
2018-Jun-16 20:00N 44°24' E 008°52'0 0.0
2018-Jun-16 19:30N 44°24' E 008°52'0 0.0
2018-Jun-16 18:59N 44°24' E 008°52'0 0.0
2018-Jun-16 18:30N 44°24' E 008°52'0 0.0
2018-Jun-16 18:00N 44°24' E 008°52'0 0.0
2018-Jun-16 17:30N 44°24' E 008°52'0 0.0
2018-Jun-16 17:00N 44°24' E 008°52'0 0.0
2018-Jun-16 16:30N 44°24' E 008°52'0 0.0
2018-Jun-16 16:00N 44°24' E 008°52'0 0.0
2018-Jun-16 15:30N 44°24' E 008°52'0 0.0
2018-Jun-16 15:00N 44°24' E 008°52'0 0.0
2018-Jun-16 14:30N 44°24' E 008°52'0 0.0
2018-Jun-16 14:00N 44°24' E 008°52'0 0.0
2018-Jun-16 13:30N 44°24' E 008°52'0 0.0
2018-Jun-16 13:00N 44°24' E 008°52'0 0.0
2018-Jun-16 12:30N 44°24' E 008°52'0 0.0
2018-Jun-16 12:00N 44°24' E 008°52'0 0.0
2018-Jun-16 11:30N 44°24' E 008°52'0 0.0
2018-Jun-16 11:00N 44°24' E 008°52'0 0.0
2018-Jun-16 10:30N 44°24' E 008°52'0 0.0
2018-Jun-16 10:00N 44°24' E 008°52'0 0.0
2018-Jun-16 09:30N 44°24' E 008°52'0 0.0
2018-Jun-16 09:00N 44°24' E 008°52'0 0.0
2018-Jun-16 08:30N 44°24' E 008°52'0 0.0
2018-Jun-16 08:00N 44°24' E 008°52'0 0.0
2018-Jun-16 07:30N 44°24' E 008°52'0 0.0
2018-Jun-16 07:00N 44°24' E 008°52'0 0.0
2018-Jun-16 06:30N 44°24' E 008°52'0 0.0
2018-Jun-16 06:00N 44°24' E 008°52'0 0.0
2018-Jun-16 05:30N 44°24' E 008°52'0 0.0
2018-Jun-16 05:00N 44°24' E 008°52'0 0.0
2018-Jun-16 04:30N 44°24' E 008°52'0 0.0
2018-Jun-16 04:00N 44°24' E 008°52'0 0.0
2018-Jun-16 03:30N 44°24' E 008°52'0 0.0
2018-Jun-16 03:00N 44°24' E 008°52'0 0.0
2018-Jun-16 02:30N 44°24' E 008°52'0 0.0
2018-Jun-16 02:00N 44°24' E 008°52'0 0.0
2018-Jun-16 01:30N 44°24' E 008°52'0 0.0
2018-Jun-16 01:00N 44°24' E 008°52'0 0.0
2018-Jun-16 00:30N 44°24' E 008°52'0 0.0
2018-Jun-16 00:00N 44°24' E 008°52'0 0.0
2018-Jun-15 23:30N 44°24' E 008°52'0 0.0
2018-Jun-15 23:00N 44°24' E 008°52'0 0.0
2018-Jun-15 22:30N 44°24' E 008°52'0 0.0
2018-Jun-15 22:00N 44°24' E 008°52'0 0.0
2018-Jun-15 21:30N 44°24' E 008°52'0 0.0
2018-Jun-15 21:00N 44°24' E 008°52'0 0.0
2018-Jun-15 20:30N 44°24' E 008°52'0 0.0
2018-Jun-15 20:00N 44°24' E 008°52'0 0.0
2018-Jun-15 19:30N 44°24' E 008°52'0 0.0
2018-Jun-15 19:00N 44°24' E 008°52'0 0.0
2018-Jun-15 18:30N 44°24' E 008°52'0 0.0
2018-Jun-15 18:00N 44°24' E 008°52'0 0.0
2018-Jun-15 17:30N 44°24' E 008°52'0 0.0
2018-Jun-15 17:00N 44°24' E 008°52'0 0.0
2018-Jun-15 16:30N 44°24' E 008°52'0 0.0
2018-Jun-15 16:00N 44°24' E 008°52'0 0.0
2018-Jun-15 15:30N 44°24' E 008°52'0 0.0
2018-Jun-15 15:00N 44°24' E 008°52'0 0.0
2018-Jun-15 14:30N 44°24' E 008°52'0 0.0
2018-Jun-15 14:00N 44°24' E 008°52'0 0.0
2018-Jun-15 13:30N 44°24' E 008°52'0 0.0
2018-Jun-15 13:00N 44°24' E 008°52'0 0.0
2018-Jun-15 12:30N 44°24' E 008°52'0 0.0
2018-Jun-15 12:00N 44°24' E 008°52'0 0.0
2018-Jun-15 11:30N 44°24' E 008°52'0 0.0
2018-Jun-15 11:00N 44°24' E 008°52'0 0.0
2018-Jun-15 10:30N 44°24' E 008°52'0 0.0
2018-Jun-15 10:00N 44°24' E 008°52'0 0.0
2018-Jun-15 09:30N 44°24' E 008°52'0 0.0
2018-Jun-15 09:00N 44°24' E 008°52'0 0.0
2018-Jun-15 08:30N 44°24' E 008°52'0 0.0
2018-Jun-15 08:00N 44°24' E 008°52'0 0.0
2018-Jun-15 07:30N 44°24' E 008°52'0 0.0
2018-Jun-15 07:00N 44°24' E 008°52'0 0.0
2018-Jun-15 06:30N 44°24' E 008°52'0 0.0
2018-Jun-15 06:00N 44°24' E 008°52'0 0.0
2018-Jun-15 05:30N 44°24' E 008°52'0 0.0
2018-Jun-15 05:00N 44°24' E 008°52'0 0.0
2018-Jun-15 04:30N 44°24' E 008°52'0 0.0
2018-Jun-15 04:00N 44°24' E 008°52'0 0.0
2018-Jun-15 03:30N 44°24' E 008°52'0 0.0
2018-Jun-15 03:00N 44°24' E 008°52'0 0.0
2018-Jun-15 02:30N 44°24' E 008°52'0 0.0
2018-Jun-15 02:00N 44°24' E 008°52'0 0.0
2018-Jun-15 01:30N 44°24' E 008°52'0 0.0
2018-Jun-15 01:00N 44°24' E 008°52'0 0.0
2018-Jun-15 00:30N 44°24' E 008°52'0 0.0
2018-Jun-15 00:00N 44°24' E 008°52'0 0.0
2018-Jun-14 23:30N 44°24' E 008°52'0 0.0
2018-Jun-14 23:00N 44°24' E 008°52'0 0.0
2018-Jun-14 22:30N 44°24' E 008°52'0 0.0
2018-Jun-14 22:00N 44°24' E 008°52'0 0.0
2018-Jun-14 21:30N 44°24' E 008°52'0 0.0
2018-Jun-14 21:00N 44°24' E 008°52'0 0.0
2018-Jun-14 20:30N 44°24' E 008°52'0 0.0
2018-Jun-14 20:00N 44°24' E 008°52'0 0.0
2018-Jun-14 19:30N 44°24' E 008°52'0 0.0
2018-Jun-14 19:00N 44°24' E 008°52'0 0.0
2018-Jun-14 18:30N 44°24' E 008°52'0 0.0
2018-Jun-14 18:00N 44°24' E 008°52'0 0.0
2018-Jun-14 17:30N 44°24' E 008°52'0 0.0
2018-Jun-14 17:00N 44°24' E 008°52'0 0.0
2018-Jun-14 16:30N 44°24' E 008°52'0 0.0
2018-Jun-14 16:00N 44°24' E 008°52'0 0.0
2018-Jun-14 15:30N 44°24' E 008°52'0 0.0
2018-Jun-14 15:00N 44°24' E 008°52'0 0.0
2018-Jun-14 14:30N 44°24' E 008°52'0 0.0
2018-Jun-14 14:00N 44°24' E 008°52'0 0.0
2018-Jun-14 13:30N 44°24' E 008°52'0 0.0
2018-Jun-14 13:00N 44°24' E 008°52'0 0.0
2018-Jun-14 12:30N 44°24' E 008°52'0 0.0
2018-Jun-14 12:00N 44°24' E 008°52'0 0.0
2018-Jun-14 11:30N 44°24' E 008°52'0 0.0
2018-Jun-14 11:00N 44°24' E 008°52'0 0.0
2018-Jun-14 10:30N 44°24' E 008°52'0 0.0
2018-Jun-14 10:00N 44°24' E 008°52'0 0.0
2018-Jun-14 09:30N 44°24' E 008°52'0 0.0
2018-Jun-14 09:00N 44°24' E 008°52'0 0.0
2018-Jun-14 08:30N 44°24' E 008°52'0 0.0
2018-Jun-14 08:00N 44°24' E 008°52'0 0.0
2018-Jun-14 07:30N 44°24' E 008°52'0 0.0
2018-Jun-14 07:00N 44°24' E 008°52'0 0.0
2018-Jun-14 06:30N 44°24' E 008°52'0 0.0
2018-Jun-14 06:00N 44°24' E 008°52'0 0.0
2018-Jun-14 05:30N 44°24' E 008°52'0 0.0
2018-Jun-14 05:00N 44°24' E 008°52'0 0.0
2018-Jun-14 04:30N 44°24' E 008°52'0 0.0
2018-Jun-14 04:00N 44°24' E 008°52'0 0.0
2018-Jun-14 03:30N 44°24' E 008°52'0 0.0
2018-Jun-14 03:00N 44°24' E 008°52'0 0.0
2018-Jun-14 02:30N 44°24' E 008°52'0 0.0
2018-Jun-14 02:00N 44°24' E 008°52'0 0.0
2018-Jun-14 01:30N 44°24' E 008°52'0 0.0
2018-Jun-14 01:00N 44°24' E 008°52'0 0.0
2018-Jun-14 00:30N 44°24' E 008°52'0 0.0
2018-Jun-14 00:00N 44°24' E 008°52'0 0.0
2018-Jun-13 23:30N 44°24' E 008°52'0 0.0
2018-Jun-13 23:00N 44°24' E 008°52'0 0.0
2018-Jun-13 22:30N 44°24' E 008°52'0 0.0
2018-Jun-13 22:00N 44°24' E 008°52'0 0.0
2018-Jun-13 21:30N 44°24' E 008°52'0 0.0
2018-Jun-13 21:00N 44°24' E 008°52'0 0.0
2018-Jun-13 20:30N 44°24' E 008°52'0 0.0
2018-Jun-13 20:00N 44°24' E 008°52'0 0.0
2018-Jun-13 19:30N 44°24' E 008°52'0 0.0
2018-Jun-13 19:00N 44°24' E 008°52'0 0.0
2018-Jun-13 18:30N 44°24' E 008°52'0 0.0
2018-Jun-13 18:00N 44°24' E 008°52'0 0.0
2018-Jun-13 17:30N 44°24' E 008°52'0 0.0
2018-Jun-13 17:00N 44°24' E 008°52'0 0.0
2018-Jun-13 16:30N 44°24' E 008°52'0 0.0
2018-Jun-13 16:00N 44°24' E 008°52'0 0.0
2018-Jun-13 15:30N 44°24' E 008°52'0 0.0
2018-Jun-13 15:00N 44°24' E 008°52'0 0.0
2018-Jun-13 14:30N 44°24' E 008°52'0 0.0
2018-Jun-13 14:00N 44°24' E 008°52'0 0.0
2018-Jun-13 13:30N 44°24' E 008°52'0 0.0
2018-Jun-13 13:00N 44°24' E 008°52'0 0.0
2018-Jun-13 12:30N 44°24' E 008°52'0 0.3
2018-Jun-13 12:00N 44°24' E 008°52'1 2.8
2018-Jun-13 11:30N 44°24' E 008°54'1 1.2
2018-Jun-13 11:00N 44°23' E 008°53'1 1.0
2018-Jun-13 10:30N 44°23' E 008°54'1 1.1
2018-Jun-13 09:55N 44°23' E 008°55'0 0.1
2018-Jun-13 09:28N 44°23' E 008°55'0 0.1
2018-Jun-13 08:55N 44°23' E 008°55'0 0.0
2018-Jun-13 08:28N 44°23' E 008°55'0 0.0
2018-Jun-13 07:58N 44°23' E 008°55'0 0.0
2018-Jun-13 07:28N 44°23' E 008°55'0 0.1
2018-Jun-13 06:58N 44°23' E 008°55'0 0.0
2018-Jun-13 06:28N 44°23' E 008°55'  

Dump ship's entire track history